Time;durP1;ratioP1;P1;durP2;ratioP2;P2;SDS_P1;SDS_P2;PMS_P1;PMS_P2;Temp;Humidity;BMP_temperature;BMP_pressure;BME280_temperature;BME280_humidity;BME280_pressure;Samples;Min_cycle;Max_cycle;Signal;HPM_P1;HPM_P2
2021/11/04 00:00:11;;;;;;;5.40;5.03;;;7.60;99.90;;;;;;5015905;28;20202;-84
2021/11/04 00:02:38;;;;;;;4.47;4.18;;;7.60;99.90;;;;;;5015364;28;20595;-85
2021/11/04 00:05:06;;;;;;;4.47;4.18;;;7.70;99.90;;;;;;5015051;28;20857;-86
2021/11/04 00:07:33;;;;;;;4.40;4.10;;;7.60;99.90;;;;;;5015938;28;20211;-85
2021/11/04 00:10:00;;;;;;;4.32;4.03;;;7.70;99.90;;;;;;5015504;28;20214;-85
2021/11/04 00:12:28;;;;;;;3.75;3.45;;;7.80;99.90;;;;;;5014714;28;20203;-85
2021/11/04 00:14:55;;;;;;;3.88;3.55;;;7.90;99.90;;;;;;5015204;28;20206;-85
2021/11/04 00:17:22;;;;;;;3.88;3.25;;;8.00;99.90;;;;;;5014361;28;20202;-85
2021/11/04 00:19:49;;;;;;;3.97;3.58;;;7.80;99.90;;;;;;5005940;28;20211;-85
2021/11/04 00:22:15;;;;;;;4.53;4.13;;;7.70;99.90;;;;;;5014034;28;20227;-85
2021/11/04 00:24:42;;;;;;;3.97;3.67;;;7.60;99.90;;;;;;5014302;28;20227;-85
2021/11/04 00:27:09;;;;;;;4.78;4.28;;;7.50;99.90;;;;;;5015418;28;20214;-85
2021/11/04 00:29:37;;;;;;;3.92;3.45;;;7.50;99.90;;;;;;5015383;28;20215;-84
2021/11/04 00:32:05;;;;;;;4.55;4.05;;;7.50;99.90;;;;;;5023789;28;20230;-84
2021/11/04 00:34:33;;;;;;;3.97;3.67;;;7.60;99.90;;;;;;5010027;28;20195;-85
2021/11/04 00:37:00;;;;;;;2.83;2.63;;;7.60;99.90;;;;;;5025536;28;20590;-85
2021/11/04 00:39:27;;;;;;;3.35;3.08;;;7.60;99.90;;;;;;5023881;28;20209;-85
2021/11/04 00:41:53;;;;;;;3.55;3.25;;;7.50;99.90;;;;;;5034001;28;20242;-84
2021/11/04 00:44:20;;;;;;;3.22;3.00;;;7.40;99.90;;;;;;5017111;28;20589;-83
2021/11/04 00:46:48;;;;;;;3.50;3.30;;;7.50;99.90;;;;;;5015178;28;20207;-82
2021/11/04 00:49:15;;;;;;;3.53;3.22;;;7.60;99.90;;;;;;5015237;28;20214;-83
2021/11/04 00:51:42;;;;;;;3.55;3.25;;;7.60;99.90;;;;;;5014489;28;20621;-83
2021/11/04 00:54:09;;;;;;;3.67;3.00;;;7.60;99.90;;;;;;5018671;28;20217;-84
2021/11/04 00:56:36;;;;;;;3.15;2.95;;;7.60;99.90;;;;;;5035844;28;20209;-82
2021/11/04 00:59:03;;;;;;;3.40;3.20;;;7.70;99.90;;;;;;5036281;28;20265;-84
2021/11/04 01:01:30;;;;;;;3.58;3.28;;;7.70;99.90;;;;;;5035500;28;20218;-84
2021/11/04 01:03:58;;;;;;;2.40;2.20;;;7.80;99.90;;;;;;5034837;28;20231;-83
2021/11/04 01:06:25;;;;;;;2.60;2.40;;;7.70;99.90;;;;;;5016986;28;20225;-84
2021/11/04 01:08:52;;;;;;;3.40;3.10;;;7.60;99.90;;;;;;5014563;28;20696;-84
2021/11/04 01:11:19;;;;;;;2.75;2.55;;;7.50;99.90;;;;;;5014420;28;20223;-84
2021/11/04 01:13:47;;;;;;;3.42;3.22;;;7.50;99.90;;;;;;5013815;28;20199;-84
2021/11/04 01:16:14;;;;;;;3.20;2.95;;;7.60;99.90;;;;;;5014409;28;20297;-85
2021/11/04 01:18:41;;;;;;;3.03;2.80;;;7.40;99.90;;;;;;5014651;28;20372;-84
2021/11/04 01:21:09;;;;;;;2.30;2.20;;;7.40;99.90;;;;;;5014069;28;20227;-82
2021/11/04 01:23:36;;;;;;;2.70;2.50;;;7.50;99.90;;;;;;5013833;28;20222;-84
2021/11/04 01:26:04;;;;;;;2.60;2.38;;;7.60;99.90;;;;;;5014131;28;20214;-84
2021/11/04 01:28:31;;;;;;;3.75;3.45;;;7.50;99.90;;;;;;5013993;28;20217;-84
2021/11/04 01:33:28;;;;;;;2.60;2.40;;;7.30;99.90;;;;;;5021519;28;20219;-80
2021/11/04 01:35:55;;;;;;;3.10;2.92;;;7.30;99.90;;;;;;5023561;28;20214;-81
2021/11/04 01:38:23;;;;;;;1.80;1.70;;;7.30;99.90;;;;;;5057346;28;20226;-81
2021/11/04 01:40:50;;;;;;;2.30;2.05;;;7.40;99.90;;;;;;5042696;28;20635;-80
2021/11/04 01:43:17;;;;;;;2.47;2.30;;;7.30;99.90;;;;;;5059004;28;20252;-81
2021/11/04 01:45:44;;;;;;;1.73;1.63;;;7.40;99.90;;;;;;5061652;28;20220;-81
2021/11/04 01:48:11;;;;;;;1.98;1.88;;;7.40;99.90;;;;;;5045189;28;20565;-81
2021/11/04 01:50:38;;;;;;;1.52;1.42;;;7.20;99.90;;;;;;5043734;28;20203;-80
2021/11/04 01:53:05;;;;;;;2.25;2.15;;;7.10;99.90;;;;;;5064456;28;20225;-80
2021/11/04 01:55:33;;;;;;;1.88;1.73;;;7.10;99.90;;;;;;5064740;28;20208;-81
2021/11/04 01:58:00;;;;;;;1.60;1.50;;;7.10;99.90;;;;;;5045905;28;20213;-80
2021/11/04 02:00:30;;;;;;;2.17;2.08;;;6.90;99.90;;;;;;5046730;28;20213;-81
2021/11/04 02:03:02;;;;;;;2.63;2.42;;;6.80;99.90;;;;;;5058520;28;20233;-81
2021/11/04 02:05:40;;;;;;;4.03;2.50;;;6.70;99.90;;;;;;5044182;28;20213;-80
2021/11/04 02:08:12;;;;;;;2.05;1.95;;;6.70;99.90;;;;;;5037856;28;20208;-80
2021/11/04 02:10:44;;;;;;;2.20;2.00;;;6.80;99.90;;;;;;5070177;28;20189;-80
2021/11/04 02:13:16;;;;;;;2.00;1.90;;;6.80;99.90;;;;;;5071856;28;20248;-80
2021/11/04 02:15:44;;;;;;;3.15;2.95;;;6.80;99.90;;;;;;5052606;28;20290;-81
2021/11/04 02:18:13;;;;;;;2.10;2.00;;;6.70;99.90;;;;;;5043294;28;20217;-81
2021/11/04 02:20:52;;;;;;;2.10;2.00;;;6.70;99.90;;;;;;5059131;28;20563;-80
2021/11/04 02:23:27;;;;;;;1.92;1.83;;;6.80;99.90;;;;;;5071085;28;20225;-80
2021/11/04 02:25:56;;;;;;;2.45;2.25;;;6.70;99.90;;;;;;5065251;28;20197;-81
2021/11/04 02:28:24;;;;;;;2.28;2.00;;;6.60;99.90;;;;;;5044219;28;20209;-81
2021/11/04 02:30:51;;;;;;;3.08;2.88;;;6.60;99.90;;;;;;5052484;28;20209;-80
2021/11/04 02:33:22;;;;;;;3.08;2.88;;;6.60;99.90;;;;;;5068776;28;20237;-80
2021/11/04 02:35:51;;;;;;;2.85;2.65;;;6.60;99.90;;;;;;5067613;28;20209;-81
2021/11/04 02:38:19;;;;;;;3.08;2.88;;;6.50;99.90;;;;;;5061023;28;20197;-81
2021/11/04 02:40:46;;;;;;;3.10;2.90;;;6.40;99.90;;;;;;5061187;28;20200;-81
2021/11/04 02:43:15;;;;;;;6.05;3.25;;;6.40;99.90;;;;;;5059919;28;20225;-81
2021/11/04 02:45:43;;;;;;;3.80;3.50;;;6.40;99.90;;;;;;5053732;28;20209;-81
2021/11/04 02:48:10;;;;;;;3.65;3.35;;;6.40;99.90;;;;;;5040509;28;20203;-81
2021/11/04 02:50:37;;;;;;;3.47;3.17;;;6.30;99.90;;;;;;5047327;28;20197;-81
2021/11/04 02:53:04;;;;;;;4.07;3.75;;;6.30;99.90;;;;;;5060583;28;20233;-81
2021/11/04 02:55:35;;;;;;;3.75;2.80;;;6.30;99.90;;;;;;5055135;28;20190;-81
2021/11/04 02:58:06;;;;;;;4.43;3.72;;;6.20;99.90;;;;;;5054125;28;20205;-81
2021/11/04 03:00:36;;;;;;;3.90;3.60;;;6.10;99.90;;;;;;5059009;28;20194;-81
2021/11/04 03:03:03;;;;;;;2.63;2.38;;;6.00;99.90;;;;;;5059342;28;20221;-81
2021/11/04 03:05:30;;;;;;;3.25;2.30;;;6.00;99.90;;;;;;5056504;28;20221;-81
2021/11/04 03:07:57;;;;;;;2.70;2.50;;;6.00;99.90;;;;;;5053544;28;20202;-81
2021/11/04 03:10:25;;;;;;;2.00;1.80;;;6.00;99.90;;;;;;5057873;28;20206;-81
2021/11/04 03:12:52;;;;;;;1.52;1.42;;;6.00;99.90;;;;;;5039857;28;20237;-81
2021/11/04 03:15:22;;;;;;;1.60;1.50;;;6.00;99.90;;;;;;5040549;28;20588;-81
2021/11/04 03:17:53;;;;;;;1.60;1.50;;;6.00;99.90;;;;;;5046780;28;20630;-81
2021/11/04 03:20:21;;;;;;;1.55;1.45;;;6.00;99.90;;;;;;5039663;28;20271;-81
2021/11/04 03:22:49;;;;;;;1.48;1.38;;;6.00;99.90;;;;;;5019274;28;20600;-80
2021/11/04 03:25:18;;;;;;;1.60;1.50;;;5.90;99.90;;;;;;5019950;28;20227;-81
2021/11/04 03:27:48;;;;;;;1.50;1.40;;;5.90;99.90;;;;;;5058971;28;20214;-80
2021/11/04 03:30:18;;;;;;;0.98;0.90;;;5.90;99.90;;;;;;5059650;28;20213;-81
2021/11/04 03:32:45;;;;;;;1.63;1.42;;;5.90;99.90;;;;;;5040144;28;20245;-80
2021/11/04 03:35:15;;;;;;;1.25;1.23;;;5.80;99.90;;;;;;5039855;28;20202;-80
2021/11/04 03:37:45;;;;;;;1.25;1.15;;;5.70;99.90;;;;;;5039906;28;20198;-81
2021/11/04 03:40:12;;;;;;;1.20;1.20;;;5.70;99.90;;;;;;5046766;28;20210;-81
2021/11/04 03:42:40;;;;;;;1.30;1.20;;;5.60;99.90;;;;;;5043894;28;20229;-81
2021/11/04 03:45:08;;;;;;;1.55;1.45;;;5.40;99.90;;;;;;5044380;28;20244;-81
2021/11/04 03:47:36;;;;;;;1.23;1.23;;;5.40;99.90;;;;;;5062282;28;20696;-81
2021/11/04 03:50:05;;;;;;;1.27;1.20;;;5.30;99.90;;;;;;5062542;28;20290;-81
2021/11/04 03:52:33;;;;;;;0.80;0.80;;;5.40;99.90;;;;;;5042657;28;20704;-81
2021/11/04 03:55:01;;;;;;;2.13;1.40;;;5.30;99.90;;;;;;5043422;28;20565;-81
2021/11/04 03:57:28;;;;;;;2.33;2.13;;;5.30;99.90;;;;;;5042904;28;20203;-81
2021/11/04 03:59:55;;;;;;;3.65;3.45;;;5.30;99.90;;;;;;5043140;28;20213;-81
2021/11/04 04:02:23;;;;;;;1.58;1.48;;;5.30;99.90;;;;;;5060612;28;20222;-81
2021/11/04 04:04:53;;;;;;;1.73;1.63;;;5.20;99.90;;;;;;5061805;28;20706;-81
2021/11/04 04:07:19;;;;;;;2.00;1.85;;;5.20;99.90;;;;;;5042806;28;20237;-80
2021/11/04 04:09:48;;;;;;;2.05;1.88;;;5.30;99.90;;;;;;5041933;28;20214;-80
2021/11/04 04:12:16;;;;;;;1.85;1.75;;;5.30;99.90;;;;;;5042285;28;20230;-81
2021/11/04 04:14:43;;;;;;;2.13;2.03;;;5.30;99.90;;;;;;5042005;28;20672;-81
2021/11/04 04:17:10;;;;;;;1.60;1.50;;;5.40;99.90;;;;;;5042522;28;20202;-81
2021/11/04 04:19:36;;;;;;;1.83;1.73;;;5.40;99.90;;;;;;5042184;28;20210;-81
2021/11/04 04:22:04;;;;;;;1.77;1.75;;;5.50;99.90;;;;;;5057739;28;20224;-81
2021/11/04 04:24:31;;;;;;;1.75;1.65;;;5.60;99.90;;;;;;5062445;28;20237;-81
2021/11/04 04:26:59;;;;;;;1.50;1.40;;;5.70;99.90;;;;;;5047139;28;20206;-81
2021/11/04 04:29:25;;;;;;;2.00;1.60;;;5.70;99.90;;;;;;5040212;28;20214;-81
2021/11/04 04:31:52;;;;;;;1.52;1.42;;;5.70;99.90;;;;;;5038365;28;20235;-80
2021/11/04 04:34:21;;;;;;;1.90;1.80;;;5.90;99.90;;;;;;5046719;28;20392;-80
2021/11/04 04:36:47;;;;;;;1.50;1.40;;;6.00;99.90;;;;;;5042684;28;20675;-81
2021/11/04 04:39:14;;;;;;;1.73;1.63;;;6.10;99.90;;;;;;5039067;28;20218;-81
2021/11/04 04:41:41;;;;;;;1.55;1.45;;;6.20;99.90;;;;;;5037841;28;20237;-81
2021/11/04 04:44:09;;;;;;;1.90;1.60;;;6.20;99.90;;;;;;5044314;28;20224;-81
2021/11/04 04:46:36;;;;;;;1.83;1.50;;;6.20;99.90;;;;;;5057643;28;20213;-80
2021/11/04 04:49:02;;;;;;;1.83;1.73;;;6.10;99.90;;;;;;5053514;28;20202;-80
2021/11/04 04:51:29;;;;;;;2.00;1.90;;;6.30;99.90;;;;;;5039032;28;20233;-80
2021/11/04 04:53:56;;;;;;;1.45;1.35;;;6.30;99.90;;;;;;5041893;28;20209;-80
2021/11/04 04:56:23;;;;;;;2.10;1.90;;;6.30;99.90;;;;;;5047269;28;20277;-80
2021/11/04 04:58:50;;;;;;;1.55;1.45;;;6.40;99.90;;;;;;5040881;28;20210;-81
2021/11/04 05:01:18;;;;;;;1.45;1.35;;;6.30;99.90;;;;;;5059536;28;20243;-81
2021/11/04 05:03:44;;;;;;;1.60;1.50;;;6.40;99.90;;;;;;5060195;28;20212;-81
2021/11/04 05:06:11;;;;;;;1.23;1.20;;;6.30;99.90;;;;;;5057995;28;20233;-81
2021/11/04 05:08:38;;;;;;;1.40;1.30;;;6.30;99.90;;;;;;5058154;28;20210;-81
2021/11/04 05:11:05;;;;;;;1.48;1.40;;;6.30;99.90;;;;;;5057663;28;20213;-81
2021/11/04 05:13:32;;;;;;;1.20;1.20;;;6.10;99.90;;;;;;5057555;28;20206;-81
2021/11/04 05:15:59;;;;;;;1.45;1.35;;;6.00;99.90;;;;;;5055735;28;20207;-81
2021/11/04 05:18:27;;;;;;;3.05;2.85;;;6.10;99.90;;;;;;5058168;28;20206;-81
2021/11/04 05:20:54;;;;;;;1.00;1.00;;;6.10;99.90;;;;;;5041667;28;20198;-80
2021/11/04 05:23:21;;;;;;;2.17;1.15;;;6.00;99.90;;;;;;5039207;28;20206;-80
2021/11/04 05:25:48;;;;;;;1.25;1.15;;;5.90;99.90;;;;;;5056012;28;20222;-80
2021/11/04 05:28:15;;;;;;;1.40;1.30;;;5.80;99.90;;;;;;5063709;28;20209;-81
2021/11/04 05:30:42;;;;;;;1.40;1.30;;;5.80;99.90;;;;;;5049743;28;20217;-80
2021/11/04 05:33:09;;;;;;;0.82;0.82;;;5.80;99.90;;;;;;5042587;28;20245;-80
2021/11/04 05:35:37;;;;;;;1.15;1.15;;;5.70;99.90;;;;;;5055648;28;20562;-81
2021/11/04 05:38:04;;;;;;;1.30;1.20;;;5.70;99.90;;;;;;5062261;28;20202;-81
2021/11/04 05:40:33;;;;;;;1.35;1.25;;;5.70;99.90;;;;;;5049043;28;20225;-80
2021/11/04 05:43:00;;;;;;;1.67;1.58;;;5.60;99.90;;;;;;5041844;28;20278;-80
2021/11/04 05:45:27;;;;;;;1.10;1.00;;;5.50;99.90;;;;;;5059304;28;20229;-80
2021/11/04 05:47:53;;;;;;;1.33;1.23;;;5.50;99.90;;;;;;5061499;28;20255;-80
2021/11/04 05:50:21;;;;;;;2.05;1.92;;;5.50;99.90;;;;;;5060491;28;20197;-80
2021/11/04 05:52:49;;;;;;;2.25;1.77;;;5.50;99.90;;;;;;5060736;28;20226;-80
2021/11/04 05:55:16;;;;;;;2.00;1.90;;;5.60;99.90;;;;;;5044896;28;20208;-80
2021/11/04 05:57:43;;;;;;;1.63;1.52;;;5.60;99.90;;;;;;5041857;28;20631;-80
2021/11/04 06:00:11;;;;;;;1.80;1.70;;;5.70;99.90;;;;;;5056316;28;20229;-80
2021/11/04 06:02:37;;;;;;;1.50;1.40;;;5.60;99.90;;;;;;5062588;28;20225;-81
2021/11/04 06:05:05;;;;;;;2.35;1.77;;;5.60;99.90;;;;;;5048980;28;20222;-81
2021/11/04 06:07:31;;;;;;;1.70;1.60;;;5.60;99.90;;;;;;5044274;28;20594;-80
2021/11/04 06:09:59;;;;;;;2.05;1.45;;;5.60;99.90;;;;;;5057698;28;20201;-80
2021/11/04 06:12:26;;;;;;;2.03;1.85;;;5.50;99.90;;;;;;5065031;28;20232;-80
2021/11/04 06:14:53;;;;;;;2.60;1.88;;;5.60;99.90;;;;;;5051234;28;20198;-81
2021/11/04 06:17:20;;;;;;;2.25;2.15;;;5.60;99.90;;;;;;5043048;28;20251;-81
2021/11/04 06:19:47;;;;;;;2.08;1.90;;;5.70;99.90;;;;;;5054105;28;20205;-80
2021/11/04 06:22:13;;;;;;;2.20;2.00;;;5.80;99.90;;;;;;5061386;28;20231;-81
2021/11/04 06:24:40;;;;;;;2.22;1.83;;;5.80;99.90;;;;;;5047930;28;20217;-81
2021/11/04 06:27:08;;;;;;;2.78;2.08;;;5.90;99.90;;;;;;5039487;28;20225;-81
2021/11/04 06:29:35;;;;;;;1.90;1.80;;;5.60;99.90;;;;;;5039869;28;20210;-81
2021/11/04 06:32:01;;;;;;;2.17;1.98;;;5.50;99.90;;;;;;5035072;28;20227;-81
2021/11/04 06:34:28;;;;;;;1.80;1.70;;;5.50;99.90;;;;;;5040492;28;20792;-81
2021/11/04 06:36:55;;;;;;;2.15;2.05;;;5.50;99.90;;;;;;5038949;28;20206;-81
2021/11/04 06:39:22;;;;;;;2.28;2.08;;;5.50;99.90;;;;;;5038191;28;20333;-81
2021/11/04 06:41:48;;;;;;;2.60;2.40;;;5.60;99.90;;;;;;5048513;28;20236;-80
2021/11/04 06:44:16;;;;;;;2.97;2.20;;;5.60;99.90;;;;;;5050441;28;20236;-80
2021/11/04 06:46:45;;;;;;;3.72;2.15;;;5.60;99.90;;;;;;5045783;28;20222;-81
2021/11/04 06:49:13;;;;;;;2.85;2.63;;;5.60;99.90;;;;;;5044127;28;20202;-79
2021/11/04 06:51:44;;;;;;;3.28;2.90;;;5.60;99.90;;;;;;5034486;28;20222;-79
2021/11/04 06:54:12;;;;;;;2.63;2.35;;;5.50;99.90;;;;;;5036396;28;20202;-78
2021/11/04 06:56:41;;;;;;;2.60;2.40;;;5.60;99.90;;;;;;5033032;28;20213;-80
2021/11/04 06:59:17;;;;;;;1.90;1.80;;;5.60;99.90;;;;;;5048867;28;20212;-79
2021/11/04 07:01:49;;;;;;;2.00;1.90;;;5.70;99.90;;;;;;5044602;28;20222;-80
2021/11/04 07:04:24;;;;;;;3.08;2.20;;;5.70;99.90;;;;;;5046067;28;20186;-79
2021/11/04 07:07:00;;;;;;;1.90;1.80;;;5.90;99.90;;;;;;5050298;28;20214;-81
2021/11/04 07:09:28;;;;;;;1.63;1.52;;;5.90;99.90;;;;;;5052187;28;20198;-80
2021/11/04 07:11:57;;;;;;;1.77;1.63;;;6.00;99.90;;;;;;5058595;28;20287;-80
2021/11/04 07:14:27;;;;;;;1.05;1.05;;;5.90;99.90;;;;;;5052280;28;20198;-80
2021/11/04 07:16:56;;;;;;;2.28;2.08;;;6.00;99.90;;;;;;5038302;28;20341;-79
2021/11/04 07:19:23;;;;;;;1.60;1.50;;;6.00;99.90;;;;;;5045022;28;20204;-79
2021/11/04 07:22:00;;;;;;;2.42;2.22;;;6.00;99.90;;;;;;5044118;28;20218;-80
2021/11/04 07:24:32;;;;;;;1.88;1.77;;;6.00;99.90;;;;;;5044351;28;20663;-79
2021/11/04 07:27:08;;;;;;;2.15;1.30;;;6.10;99.90;;;;;;5048807;28;20190;-80
2021/11/04 07:29:41;;;;;;;2.30;2.08;;;5.90;99.90;;;;;;5060412;28;20612;-80
2021/11/04 07:32:10;;;;;;;1.92;1.83;;;6.00;99.90;;;;;;5073882;22;20232;-82
2021/11/04 07:34:39;;;;;;;1.58;1.48;;;6.10;99.90;;;;;;5008477;28;20206;-82
2021/11/04 07:37:09;;;;;;;2.20;2.05;;;6.10;99.90;;;;;;5020996;28;20214;-82
2021/11/04 07:39:38;;;;;;;3.13;2.30;;;6.20;99.90;;;;;;5020334;28;20210;-82
2021/11/04 07:42:07;;;;;;;2.20;2.10;;;6.40;99.90;;;;;;5020317;28;20241;-82
2021/11/04 07:44:35;;;;;;;1.83;1.73;;;6.50;99.90;;;;;;5020351;28;20222;-81
2021/11/04 07:47:02;;;;;;;2.20;2.00;;;6.50;99.90;;;;;;5020734;28;20246;-82
2021/11/04 07:49:30;;;;;;;2.00;1.90;;;6.50;99.90;;;;;;5019101;28;20196;-82
2021/11/04 07:52:00;;;;;;;1.83;1.60;;;6.60;99.90;;;;;;5021873;28;20238;-83
2021/11/04 07:54:27;;;;;;;1.75;1.65;;;6.40;99.90;;;;;;5021144;28;20546;-83
2021/11/04 07:56:54;;;;;;;1.95;1.85;;;6.30;99.90;;;;;;5021384;28;20209;-81
2021/11/04 07:59:21;;;;;;;1.50;1.40;;;6.30;99.90;;;;;;5019798;28;20687;-77
2021/11/04 08:01:48;;;;;;;1.60;1.50;;;6.30;99.90;;;;;;5007139;28;20211;-81
2021/11/04 08:04:17;;;;;;;1.85;1.75;;;6.30;99.90;;;;;;4997322;28;20218;-85
2021/11/04 08:06:45;;;;;;;2.08;1.73;;;6.30;99.90;;;;;;5000091;28;20314;-83
2021/11/04 08:09:12;;;;;;;1.80;1.70;;;6.40;99.90;;;;;;5000175;28;20210;-81
2021/11/04 08:11:39;;;;;;;2.60;2.40;;;6.40;99.90;;;;;;4999714;28;20673;-82
2021/11/04 08:14:06;;;;;;;2.30;2.00;;;6.20;99.90;;;;;;5007313;28;20302;-81
2021/11/04 08:16:32;;;;;;;2.42;2.30;;;6.20;99.90;;;;;;5017816;28;20656;-82
2021/11/04 08:18:59;;;;;;;3.55;2.00;;;6.20;99.90;;;;;;5010726;28;20203;-82
2021/11/04 08:21:26;;;;;;;2.13;2.03;;;6.20;99.90;;;;;;4998586;28;20208;-81
2021/11/04 08:23:54;;;;;;;4.60;4.20;;;6.30;99.90;;;;;;5000062;28;20226;-81
2021/11/04 08:26:21;;;;;;;2.97;2.15;;;6.30;99.90;;;;;;4998633;28;20224;-80
2021/11/04 08:28:48;;;;;;;2.38;2.17;;;6.30;99.90;;;;;;5004009;28;20206;-80
2021/11/04 08:31:17;;;;;;;3.15;2.72;;;6.20;99.90;;;;;;5017539;28;20206;-83
2021/11/04 08:33:44;;;;;;;2.70;2.42;;;6.10;99.90;;;;;;5013841;28;20227;-82
2021/11/04 08:36:11;;;;;;;3.80;3.50;;;6.20;99.90;;;;;;4998344;28;20204;-82
2021/11/04 08:38:38;;;;;;;2.42;2.20;;;6.10;99.90;;;;;;4997585;28;20573;-82
2021/11/04 08:41:06;;;;;;;3.78;3.47;;;6.00;99.90;;;;;;4997487;28;20326;-81
2021/11/04 08:43:32;;;;;;;2.88;2.45;;;6.00;99.90;;;;;;5005535;28;20229;-81
2021/11/04 08:45:59;;;;;;;2.72;2.53;;;5.90;99.90;;;;;;5018981;28;20227;-83
2021/11/04 08:48:27;;;;;;;2.22;1.88;;;6.00;99.90;;;;;;5012246;28;20204;-83
2021/11/04 08:50:54;;;;;;;3.13;2.92;;;5.90;99.90;;;;;;4998279;28;20199;-83
2021/11/04 08:53:21;;;;;;;3.20;2.72;;;5.90;99.90;;;;;;4998893;28;20225;-82
2021/11/04 08:55:48;;;;;;;3.63;2.45;;;5.90;99.90;;;;;;4999648;28;20215;-82
2021/11/04 08:58:16;;;;;;;2.35;2.15;;;6.00;99.90;;;;;;4999317;28;20231;-82
2021/11/04 09:00:43;;;;;;;2.83;2.60;;;6.00;99.90;;;;;;4998543;28;20233;-81
2021/11/04 09:03:11;;;;;;;2.90;2.25;;;6.00;99.90;;;;;;5005339;28;20322;-82
2021/11/04 09:05:39;;;;;;;3.03;2.83;;;6.00;99.90;;;;;;5023811;28;20218;-82
2021/11/04 09:08:06;;;;;;;3.15;2.70;;;5.90;99.90;;;;;;5021790;28;20548;-82
2021/11/04 09:10:33;;;;;;;2.55;2.35;;;5.90;99.90;;;;;;5004644;28;20231;-82
2021/11/04 09:13:00;;;;;;;2.00;1.80;;;6.00;99.90;;;;;;5003027;28;20234;-83
2021/11/04 09:15:28;;;;;;;2.28;2.08;;;5.90;99.90;;;;;;5017490;28;20199;-84
2021/11/04 09:18:03;;;;;;;3.30;2.60;;;6.00;99.90;;;;;;5016404;28;20222;-82
2021/11/04 09:23:37;;;;;;;4.65;2.38;;;6.10;99.90;;;;;;4986306;28;20855;-82
2021/11/04 09:26:26;;;;;;;2.22;2.13;;;6.10;99.90;;;;;;5003552;28;20220;-83
2021/11/04 09:28:53;;;;;;;2.40;1.50;;;6.10;99.90;;;;;;5015151;28;20207;-83
2021/11/04 09:31:21;;;;;;;3.25;2.55;;;6.00;99.90;;;;;;5024811;28;20230;-83
2021/11/04 09:33:48;;;;;;;2.42;2.10;;;6.10;99.90;;;;;;5014873;28;20239;-82
2021/11/04 09:36:15;;;;;;;2.03;1.92;;;6.10;99.90;;;;;;5005049;28;20211;-84
2021/11/04 09:38:42;;;;;;;1.70;1.60;;;6.20;99.90;;;;;;5007089;28;20200;-84
2021/11/04 09:41:09;;;;;;;2.97;1.88;;;6.30;99.90;;;;;;5024539;28;20211;-83
2021/11/04 09:43:38;;;;;;;1.80;1.70;;;6.20;99.90;;;;;;5023590;28;20223;-83
2021/11/04 09:46:05;;;;;;;1.70;1.60;;;6.20;99.90;;;;;;5024298;28;20708;-83
2021/11/04 09:48:36;;;;;;;1.73;1.63;;;6.20;99.90;;;;;;5024335;28;20691;-82
2021/11/04 09:51:03;;;;;;;2.03;1.92;;;6.20;99.90;;;;;;5024861;28;20205;-84
2021/11/04 09:53:30;;;;;;;2.22;2.03;;;6.10;99.90;;;;;;5024078;28;20231;-83
2021/11/04 09:55:58;;;;;;;2.22;1.67;;;6.00;99.90;;;;;;5024660;28;20213;-83
2021/11/04 09:58:25;;;;;;;3.25;1.60;;;6.10;99.90;;;;;;5023796;28;20203;-82
2021/11/04 10:00:51;;;;;;;1.70;1.60;;;5.90;99.90;;;;;;5023915;28;20207;-82
2021/11/04 10:03:19;;;;;;;2.03;1.92;;;5.90;99.90;;;;;;5022910;28;20241;-83
2021/11/04 10:05:49;;;;;;;1.75;1.65;;;5.90;99.90;;;;;;5023355;28;20229;-84
2021/11/04 10:08:17;;;;;;;1.90;1.70;;;6.00;99.90;;;;;;5024295;28;20284;-84
2021/11/04 10:10:45;;;;;;;1.67;1.58;;;5.90;99.90;;;;;;5023831;28;20294;-84
2021/11/04 10:13:13;;;;;;;1.88;1.77;;;5.90;99.90;;;;;;5023473;28;20227;-83
2021/11/04 10:15:41;;;;;;;1.60;1.50;;;5.90;99.90;;;;;;5024311;28;20214;-83
2021/11/04 10:18:14;;;;;;;2.08;1.40;;;6.00;99.90;;;;;;5021072;28;20203;-82
2021/11/04 10:20:41;;;;;;;1.88;1.75;;;6.00;99.90;;;;;;4993658;28;20789;-83
2021/11/04 10:23:12;;;;;;;1.33;1.23;;;6.00;99.90;;;;;;4996150;28;20219;-83
2021/11/04 10:25:41;;;;;;;1.08;1.08;;;5.90;99.90;;;;;;4998585;28;20715;-83
2021/11/04 10:28:47;;;;;;;0.98;0.98;;;5.80;99.90;;;;;;5004582;28;20215;-83
2021/11/04 10:31:15;;;;;;;2.38;1.15;;;5.80;99.90;;;;;;4989154;28;20234;-82
2021/11/04 10:33:44;;;;;;;1.40;1.30;;;5.90;99.90;;;;;;5000107;28;20253;-82
2021/11/04 10:36:14;;;;;;;1.30;1.20;;;5.90;99.90;;;;;;5000775;28;20203;-82
2021/11/04 10:38:45;;;;;;;1.67;1.55;;;6.10;99.90;;;;;;4999894;28;20295;-82
2021/11/04 10:41:20;;;;;;;1.52;1.42;;;6.10;99.90;;;;;;4999710;28;20246;-82
2021/11/04 10:43:49;;;;;;;0.93;0.93;;;6.30;99.90;;;;;;4999362;28;20377;-82
2021/11/04 10:46:16;;;;;;;1.15;1.08;;;6.20;99.90;;;;;;4999492;28;20294;-82
2021/11/04 10:48:45;;;;;;;1.17;1.17;;;6.30;99.90;;;;;;4999272;28;20258;-83
2021/11/04 10:51:19;;;;;;;1.40;1.40;;;6.40;99.90;;;;;;4999445;28;20214;-83
2021/11/04 10:54:00;;;;;;;0.90;0.90;;;6.40;99.90;;;;;;4999134;28;20219;-81
2021/11/04 10:56:30;;;;;;;1.10;1.00;;;6.40;99.90;;;;;;4999465;28;20207;-82
2021/11/04 10:58:58;;;;;;;1.25;1.20;;;6.40;99.90;;;;;;4999864;28;20559;-82
2021/11/04 11:01:27;;;;;;;1.50;1.40;;;6.40;99.90;;;;;;4999559;28;20683;-82
2021/11/04 11:04:08;;;;;;;1.55;1.45;;;6.60;99.90;;;;;;5000400;28;20230;-82
2021/11/04 11:06:38;;;;;;;1.30;1.20;;;6.60;99.90;;;;;;4999135;28;20235;-82
2021/11/04 11:09:09;;;;;;;1.45;1.35;;;6.70;99.90;;;;;;4999016;28;20262;-82
2021/11/04 11:11:46;;;;;;;1.83;1.73;;;6.70;99.90;;;;;;4998766;28;20211;-82
2021/11/04 11:14:44;;;;;;;1.63;1.58;;;6.60;99.90;;;;;;4998530;28;20220;-82
2021/11/04 11:17:16;;;;;;;1.30;1.20;;;6.50;99.90;;;;;;4999196;28;20208;-82
2021/11/04 11:19:46;;;;;;;1.23;1.13;;;6.50;99.90;;;;;;4998935;28;20298;-82
2021/11/04 11:22:15;;;;;;;1.77;1.67;;;6.40;99.90;;;;;;4989212;28;20224;-81
2021/11/04 11:25:08;;;;;;;3.28;2.08;;;6.30;99.90;;;;;;4997963;28;20207;-82
2021/11/04 11:27:48;;;;;;;3.03;2.03;;;6.40;99.90;;;;;;4995948;28;20297;-82
2021/11/04 11:30:15;;;;;;;3.28;2.95;;;6.40;99.90;;;;;;4985610;28;20586;-82
2021/11/04 11:32:43;;;;;;;2.15;2.05;;;6.40;99.90;;;;;;4988648;28;20238;-82
2021/11/04 11:35:18;;;;;;;2.70;2.50;;;6.30;99.90;;;;;;4985805;28;20435;-82
2021/11/04 11:38:04;;;;;;;3.38;3.08;;;6.40;99.90;;;;;;4990968;28;20238;-82
2021/11/04 11:40:33;;;;;;;4.35;2.80;;;6.40;99.90;;;;;;4990043;28;20203;-82
2021/11/04 11:43:02;;;;;;;4.22;3.38;;;6.40;99.90;;;;;;5010472;28;20223;-82
2021/11/04 11:45:30;;;;;;;3.55;3.25;;;6.40;99.90;;;;;;5031898;28;20217;-81
2021/11/04 11:48:13;;;;;;;5.13;4.50;;;6.50;99.90;;;;;;5028014;28;20203;-81
2021/11/04 11:50:42;;;;;;;4.57;4.18;;;6.30;99.90;;;;;;5018688;28;20204;-82
2021/11/04 11:53:23;;;;;;;8.27;4.85;;;6.10;99.90;;;;;;5017250;28;20287;-82
2021/11/04 11:55:52;;;;;;;4.90;4.13;;;6.20;99.90;;;;;;5006381;28;20658;-82
2021/11/04 11:58:31;;;;;;;5.72;4.55;;;6.20;99.90;;;;;;5011110;28;20195;-83
2021/11/04 12:01:01;;;;;;;5.88;5.03;;;6.30;99.90;;;;;;5020788;28;20759;-83
2021/11/04 12:03:53;;;;;;;5.82;4.55;;;6.40;99.90;;;;;;5001355;28;20238;-81
2021/11/04 12:06:53;;;;;;;4.28;3.97;;;6.40;99.90;;;;;;4995525;28;20215;-82
2021/11/04 12:09:43;;;;;;;5.75;5.32;;;6.40;99.90;;;;;;4998247;28;20218;-81
2021/11/04 12:12:42;;;;;;;5.72;5.15;;;6.50;99.90;;;;;;5014923;28;20222;-81
2021/11/04 12:15:09;;;;;;;5.28;4.88;;;6.50;99.90;;;;;;5017322;28;20560;-81
2021/11/04 12:17:36;;;;;;;6.32;5.45;;;6.60;99.90;;;;;;5016977;28;20203;-81
2021/11/04 12:20:04;;;;;;;6.60;5.90;;;6.60;99.90;;;;;;5016917;28;20207;-82
2021/11/04 12:22:34;;;;;;;6.88;6.00;;;6.80;99.90;;;;;;5016678;28;20227;-81
2021/11/04 12:25:04;;;;;;;6.00;5.43;;;6.90;99.90;;;;;;5017011;28;20619;-81
2021/11/04 12:27:33;;;;;;;8.82;7.90;;;7.20;99.90;;;;;;5017097;28;20594;-82
2021/11/04 12:30:13;;;;;;;6.78;6.05;;;7.30;99.90;;;;;;5016706;28;20210;-81
2021/11/04 12:32:40;;;;;;;5.18;4.50;;;7.40;99.90;;;;;;5016717;28;20249;-81
2021/11/04 12:35:07;;;;;;;6.50;5.80;;;7.30;99.90;;;;;;5016795;28;20301;-81
2021/11/04 12:37:35;;;;;;;7.35;6.65;;;7.20;99.90;;;;;;5016025;28;20226;-81
2021/11/04 12:40:04;;;;;;;9.55;7.13;;;7.00;99.90;;;;;;5017008;28;20217;-82
2021/11/04 12:42:31;;;;;;;6.75;6.15;;;7.00;99.90;;;;;;5016941;28;20624;-81
2021/11/04 12:44:58;;;;;;;7.10;6.40;;;7.10;99.90;;;;;;5017868;28;20207;-81
2021/11/04 12:47:28;;;;;;;6.53;5.85;;;7.10;99.90;;;;;;5024686;28;20579;-82
2021/11/04 12:49:56;;;;;;;5.97;5.30;;;7.00;99.90;;;;;;5014080;28;20208;-83
2021/11/04 12:52:26;;;;;;;5.95;5.40;;;6.90;99.90;;;;;;5005265;28;20231;-82
2021/11/04 12:54:56;;;;;;;7.88;6.47;;;6.90;99.90;;;;;;5006623;28;20641;-81
2021/11/04 12:57:24;;;;;;;6.50;5.82;;;7.00;99.90;;;;;;4986341;28;20212;-81
2021/11/04 12:59:54;;;;;;;6.10;5.47;;;7.00;99.90;;;;;;4992267;28;20224;-80
2021/11/04 13:02:25;;;;;;;5.10;4.60;;;7.20;99.90;;;;;;4987332;28;20250;-81
2021/11/04 13:04:55;;;;;;;4.90;4.40;;;7.30;99.90;;;;;;4990021;28;20207;-81
2021/11/04 13:07:24;;;;;;;5.47;4.97;;;7.40;99.90;;;;;;4990403;28;20266;-82
2021/11/04 13:09:52;;;;;;;6.00;5.15;;;7.40;99.90;;;;;;4991708;28;20275;-80
2021/11/04 13:12:21;;;;;;;6.10;5.50;;;7.40;99.90;;;;;;4996982;28;20296;-81